createdAt,value
2023-05-04T00:01:58.010Z,100939.22
2023-05-04T00:05:01.420Z,100940.59
2023-05-04T00:08:04.222Z,100928.75
2023-05-04T00:11:09.121Z,100938.03
2023-05-04T00:14:11.635Z,100931.38
2023-05-04T00:17:14.508Z,100927.66
2023-05-04T00:20:17.411Z,100924.50
2023-05-04T00:23:20.061Z,100920.13
2023-05-04T00:26:22.632Z,100919.41
2023-05-04T00:29:25.363Z,100924.56
2023-05-04T00:32:28.206Z,100915.34
2023-05-04T00:35:31.872Z,100914.66
2023-05-04T00:38:51.316Z,100918.44
2023-05-04T00:41:54.060Z,100914.44
2023-05-04T00:44:56.505Z,100908.00
2023-05-04T00:48:00.251Z,100910.28
2023-05-04T00:51:04.772Z,100906.22
2023-05-04T00:54:08.199Z,100909.50
2023-05-04T00:57:10.728Z,100915.03
2023-05-04T01:00:13.839Z,100906.53
2023-05-04T01:03:18.785Z,100912.25
2023-05-04T01:06:45.478Z,100911.31
2023-05-04T01:10:02.024Z,100914.88
2023-05-04T01:13:16.608Z,100904.69
2023-05-04T01:16:19.673Z,100906.19
2023-05-04T01:19:22.762Z,100905.28
2023-05-04T01:22:26.534Z,100896.84
2023-05-04T01:25:34.680Z,100900.63
2023-05-04T01:28:49.309Z,100894.03
2023-05-04T01:31:54.071Z,100900.16
2023-05-04T01:34:57.693Z,100895.31
2023-05-04T01:38:02.117Z,100891.38
2023-05-04T01:41:04.732Z,100882.16
2023-05-04T01:44:07.929Z,100881.09
2023-05-04T01:47:10.399Z,100881.19
2023-05-04T01:50:13.205Z,100876.84
2023-05-04T01:53:15.670Z,100878.91
2023-05-04T01:56:18.746Z,100878.63
2023-05-04T01:59:21.313Z,100867.84
2023-05-04T02:02:24.252Z,100873.19
2023-05-04T02:05:26.728Z,100874.66
2023-05-04T02:08:29.451Z,100872.59
2023-05-04T02:11:32.491Z,100884.06
2023-05-04T02:14:35.344Z,100877.72
2023-05-04T02:17:37.878Z,100876.06
2023-05-04T02:20:42.046Z,100877.34
2023-05-04T02:23:44.630Z,100872.69
2023-05-04T02:26:47.189Z,100865.47
2023-05-04T02:29:50.473Z,100871.59
2023-05-04T02:32:53.217Z,100865.78
2023-05-04T02:35:58.113Z,100868.09
2023-05-04T02:39:01.504Z,100869.06
2023-05-04T02:42:04.141Z,100862.84
2023-05-04T02:45:07.859Z,100869.06
2023-05-04T02:48:10.305Z,100870.66
2023-05-04T02:51:13.992Z,100859.28
2023-05-04T02:54:16.925Z,100878.78
2023-05-04T02:57:19.664Z,100879.75
2023-05-04T03:00:23.077Z,100882.72
2023-05-04T03:03:25.831Z,100878.38
2023-05-04T03:06:28.608Z,100888.03
2023-05-04T03:09:31.674Z,100895.44
2023-05-04T03:12:34.459Z,100896.47
2023-05-04T03:15:37.351Z,100903.84
2023-05-04T03:22:00.928Z,100903.56
2023-05-04T03:25:04.448Z,100894.84
2023-05-04T03:28:07.264Z,100899.91
2023-05-04T03:31:10.483Z,100897.72
2023-05-04T03:34:15.105Z,100897.66
2023-05-04T03:37:17.919Z,100893.19
2023-05-04T03:40:24.438Z,100894.06
2023-05-04T03:43:29.436Z,100903.53
2023-05-04T03:46:34.727Z,100897.50
2023-05-04T03:49:37.648Z,100892.78
2023-05-04T03:52:41.953Z,100903.75
2023-05-04T03:55:45.571Z,100906.72
2023-05-04T03:58:48.480Z,100919.56
2023-05-04T04:01:55.829Z,100913.50
2023-05-04T04:04:58.730Z,100922.69
2023-05-04T04:08:01.319Z,100921.78
2023-05-04T04:11:07.023Z,100921.00
2023-05-04T04:14:09.563Z,100925.88
2023-05-04T04:17:12.301Z,100922.28
2023-05-04T04:20:17.068Z,100925.91
2023-05-04T04:23:20.567Z,100929.50
2023-05-04T04:26:23.191Z,100933.94
2023-05-04T04:29:26.085Z,100936.31
2023-05-04T04:32:29.195Z,100933.84
2023-05-04T04:35:32.882Z,100934.78
2023-05-04T04:38:35.635Z,100935.84
2023-05-04T04:41:38.580Z,100939.50
2023-05-04T04:44:41.002Z,100942.72
2023-05-04T04:47:43.771Z,100951.16
2023-05-04T04:50:49.292Z,100943.53
2023-05-04T04:53:52.647Z,100955.78
2023-05-04T04:56:55.716Z,100949.69
2023-05-04T04:59:58.407Z,100945.38
2023-05-04T05:03:01.300Z,100948.59
2023-05-04T05:06:04.250Z,100947.38
2023-05-04T05:09:07.085Z,100946.25
2023-05-04T05:12:09.688Z,100951.25
2023-05-04T05:15:12.809Z,100954.59
2023-05-04T05:18:15.361Z,100952.00
2023-05-04T05:21:18.469Z,100949.81
2023-05-04T05:24:21.206Z,100951.22
2023-05-04T05:27:23.742Z,100937.53
2023-05-04T05:30:28.665Z,100940.38
2023-05-04T05:33:31.434Z,100944.75
2023-05-04T05:36:33.988Z,100947.84
2023-05-04T05:39:37.158Z,100947.66
2023-05-04T05:42:40.173Z,100955.03
2023-05-04T05:45:43.183Z,100952.09
2023-05-04T05:48:46.010Z,100949.41
2023-05-04T05:51:48.815Z,100948.19
2023-05-04T05:54:51.337Z,100945.56
2023-05-04T05:57:54.224Z,100951.72
2023-05-04T06:00:57.768Z,100956.75
2023-05-04T06:04:00.697Z,100949.47
2023-05-04T06:07:03.543Z,100954.69
2023-05-04T06:10:06.707Z,100956.25
2023-05-04T06:13:09.592Z,100956.75
2023-05-04T06:16:12.665Z,100972.56
2023-05-04T06:19:15.511Z,100965.34
2023-05-04T06:22:18.192Z,100970.50
2023-05-04T06:25:21.115Z,100975.19
2023-05-04T06:28:23.793Z,100966.81
2023-05-04T06:31:26.561Z,100978.22
2023-05-04T06:34:29.689Z,100983.75
2023-05-04T06:37:32.518Z,100980.53
2023-05-04T06:40:36.955Z,100986.66
2023-05-04T06:43:42.264Z,100985.34
2023-05-04T06:46:44.931Z,100985.63
2023-05-04T06:49:47.558Z,100988.09
2023-05-04T06:52:50.278Z,100988.03
2023-05-04T06:55:53.029Z,100989.28
2023-05-04T06:58:55.783Z,100995.63
2023-05-04T07:01:58.383Z,100987.94
2023-05-04T07:05:02.160Z,100993.94
2023-05-04T07:08:04.997Z,100999.03
2023-05-04T07:11:09.713Z,100994.47
2023-05-04T07:14:12.384Z,100990.88
2023-05-04T07:17:15.133Z,100990.66
2023-05-04T07:20:17.709Z,100987.53
2023-05-04T07:23:20.494Z,100989.50
2023-05-04T07:26:23.463Z,100992.66
2023-05-04T07:29:26.505Z,100984.91
2023-05-04T07:32:29.373Z,100987.44
2023-05-04T07:35:31.985Z,100989.66
2023-05-04T07:38:35.434Z,100979.78
2023-05-04T07:41:38.198Z,100977.59
2023-05-04T07:44:41.567Z,100978.72
2023-05-04T07:47:44.362Z,100978.78
2023-05-04T07:50:47.168Z,100982.25
2023-05-04T07:53:49.707Z,100983.78
2023-05-04T07:56:52.340Z,100985.06
2023-05-04T07:59:55.969Z,100986.41
2023-05-04T08:02:58.804Z,100988.00
2023-05-04T08:06:02.083Z,100986.66
2023-05-04T08:09:05.029Z,100989.34
2023-05-04T08:12:07.747Z,100988.31
2023-05-04T08:15:10.689Z,100991.44
2023-05-04T08:18:13.299Z,100996.38
2023-05-04T08:21:16.543Z,101006.88
2023-05-04T08:24:19.173Z,100997.56
2023-05-04T08:27:21.888Z,100998.16
2023-05-04T08:30:24.653Z,100992.75
2023-05-04T08:33:27.214Z,101000.38
2023-05-04T08:36:31.799Z,100995.06
2023-05-04T08:39:34.986Z,100997.34
2023-05-04T08:42:38.226Z,101001.78
2023-05-04T08:45:41.131Z,101000.88
2023-05-04T08:48:45.008Z,100999.03
2023-05-04T08:51:50.177Z,101008.19
2023-05-04T08:54:57.007Z,101000.53
2023-05-04T08:58:04.078Z,101004.47
2023-05-04T09:01:08.425Z,101003.97
2023-05-04T09:04:11.701Z,100997.50
2023-05-04T09:07:14.470Z,100997.31
2023-05-04T09:10:18.754Z,100999.25
2023-05-04T09:13:21.676Z,100996.84
2023-05-04T09:16:34.107Z,101005.84
2023-05-04T09:19:36.950Z,100999.72
2023-05-04T09:22:39.909Z,100989.81
2023-05-04T09:25:53.394Z,100995.66
2023-05-04T09:28:56.784Z,100984.09
2023-05-04T09:31:59.406Z,100987.25
2023-05-04T09:35:02.501Z,100979.56
2023-05-04T09:38:05.233Z,100988.63
2023-05-04T09:41:09.277Z,100991.97
2023-05-04T09:44:23.116Z,100974.84
2023-05-04T09:47:35.565Z,100987.88
2023-05-04T09:50:40.229Z,100985.81
2023-05-04T09:53:43.335Z,100980.06
2023-05-04T09:56:49.393Z,100977.28
2023-05-04T09:59:52.433Z,100975.78
2023-05-04T10:02:55.633Z,100976.50
2023-05-04T10:06:06.096Z,100961.72
2023-05-04T10:09:10.053Z,100968.75
2023-05-04T10:12:12.665Z,100964.97
2023-05-04T10:15:17.176Z,100950.44
2023-05-04T10:19:00.963Z,100943.09
2023-05-04T10:22:24.860Z,100952.19
2023-05-04T10:25:28.139Z,100939.91
2023-05-04T10:28:40.658Z,100936.00
2023-05-04T10:31:44.338Z,100938.84
2023-05-04T10:34:47.599Z,100935.31
2023-05-04T10:37:54.689Z,100932.31
2023-05-04T10:40:59.184Z,100923.81
2023-05-04T10:44:06.626Z,100921.25
2023-05-04T10:47:09.296Z,100916.50
2023-05-04T10:50:14.729Z,100909.53
2023-05-04T10:53:18.374Z,100909.78
2023-05-04T10:56:25.405Z,100912.34
2023-05-04T10:59:27.958Z,100906.28
2023-05-04T11:02:33.045Z,100897.91
2023-05-04T11:05:47.089Z,100891.59
2023-05-04T11:09:00.514Z,100896.38
2023-05-04T11:12:03.262Z,100901.00
2023-05-04T11:15:10.188Z,100891.78
2023-05-04T11:18:13.064Z,100893.53
2023-05-04T11:21:25.991Z,100895.38
2023-05-04T11:24:48.874Z,100888.91
2023-05-04T11:27:51.714Z,100889.06
2023-05-04T11:30:56.103Z,100888.97
2023-05-04T11:33:58.955Z,100880.88
2023-05-04T11:37:08.341Z,100878.84
2023-05-04T11:40:15.330Z,100877.66
2023-05-04T11:43:18.400Z,100872.53
2023-05-04T11:46:21.484Z,100864.41
2023-05-04T11:49:26.062Z,100873.28
2023-05-04T11:52:30.874Z,100875.22
2023-05-04T11:55:33.486Z,100861.94
2023-05-04T11:58:36.888Z,100867.16
2023-05-04T12:01:39.818Z,100866.59
2023-05-04T12:04:42.519Z,100863.66
2023-05-04T12:07:45.125Z,100858.94
2023-05-04T12:10:49.808Z,100857.84
2023-05-04T12:14:14.071Z,100862.50
2023-05-04T12:17:16.613Z,100858.31
2023-05-04T12:20:24.933Z,100848.72
2023-05-04T12:23:28.001Z,100844.47
2023-05-04T12:26:30.590Z,100834.50
2023-05-04T12:29:33.143Z,100830.94
2023-05-04T12:32:35.742Z,100841.66
2023-05-04T12:35:38.341Z,100826.09
2023-05-04T12:38:40.863Z,100826.91
2023-05-04T12:41:43.554Z,100822.19
2023-05-04T12:44:46.236Z,100818.31
2023-05-04T12:47:48.907Z,100825.00
2023-05-04T12:50:53.270Z,100830.59
2023-05-04T12:53:57.967Z,100820.84
2023-05-04T12:57:00.495Z,100813.03
2023-05-04T13:00:04.393Z,100821.03
2023-05-04T13:03:08.706Z,100815.03
2023-05-04T13:06:11.358Z,100807.59
2023-05-04T13:09:13.905Z,100812.34
2023-05-04T13:12:16.727Z,100809.59
2023-05-04T13:15:19.418Z,100796.78
2023-05-04T13:18:27.315Z,100808.06
2023-05-04T13:21:30.210Z,100799.47
2023-05-04T13:24:33.131Z,100788.19
2023-05-04T13:27:35.761Z,100794.06
2023-05-04T13:30:43.788Z,100795.56
2023-05-04T13:33:47.056Z,100787.00
2023-05-04T13:36:49.667Z,100787.41
2023-05-04T13:39:52.481Z,100787.00
2023-05-04T13:42:54.959Z,100772.94
2023-05-04T13:46:02.017Z,100780.22
2023-05-04T13:49:04.698Z,100775.75
2023-05-04T13:52:07.853Z,100771.13
2023-05-04T13:55:10.485Z,100775.00
2023-05-04T13:58:13.330Z,100778.84
2023-05-04T14:01:16.707Z,100773.00
2023-05-04T14:04:19.330Z,100773.78
2023-05-04T14:07:21.921Z,100757.06
2023-05-04T14:10:27.527Z,100771.81
2023-05-04T14:13:30.045Z,100770.22
2023-05-04T14:16:32.987Z,100770.28
2023-05-04T14:19:36.039Z,100772.59
2023-05-04T14:22:41.387Z,100769.75
2023-05-04T14:25:50.470Z,100764.72
2023-05-04T14:28:53.659Z,100768.44
2023-05-04T14:31:56.524Z,100768.13
2023-05-04T14:35:08.499Z,100767.03
2023-05-04T14:38:12.602Z,100766.78
2023-05-04T14:41:15.586Z,100766.31
2023-05-04T14:44:18.094Z,100777.78
2023-05-04T14:47:21.067Z,100767.66
2023-05-04T14:50:26.874Z,100768.22
2023-05-04T14:53:33.670Z,100763.91
2023-05-04T14:56:36.242Z,100760.84
2023-05-04T14:59:40.172Z,100756.97
2023-05-04T15:02:42.658Z,100763.13
2023-05-04T15:05:45.615Z,100764.94
2023-05-04T15:08:48.098Z,100766.50
2023-05-04T15:11:51.060Z,100760.47
2023-05-04T15:14:53.748Z,100764.59
2023-05-04T15:17:56.844Z,100758.78
2023-05-04T15:21:01.426Z,100764.28
2023-05-04T15:24:04.678Z,100765.09
2023-05-04T15:27:07.110Z,100765.88
2023-05-04T15:30:11.683Z,100761.66
2023-05-04T15:33:14.317Z,100771.00
2023-05-04T15:36:17.235Z,100771.50
2023-05-04T15:39:20.068Z,100774.47
2023-05-04T15:42:22.947Z,100765.88
2023-05-04T15:45:26.162Z,100768.16
2023-05-04T15:48:28.864Z,100761.63
2023-05-04T15:51:32.001Z,100761.19
2023-05-04T15:54:35.365Z,100755.50
2023-05-04T15:57:37.765Z,100757.63
2023-05-04T16:00:43.133Z,100759.94
2023-05-04T16:03:45.854Z,100764.13
2023-05-04T16:06:48.602Z,100772.25
2023-05-04T16:09:51.099Z,100766.59
2023-05-04T16:12:53.996Z,100761.25
2023-05-04T16:15:58.140Z,100762.91
2023-05-04T16:19:00.958Z,100762.66
2023-05-04T16:22:03.614Z,100761.59
2023-05-04T16:25:08.859Z,100769.09
2023-05-04T16:28:12.802Z,100764.22
2023-05-04T16:31:16.004Z,100765.56
2023-05-04T16:34:18.730Z,100769.78
2023-05-04T16:37:21.766Z,100766.13
2023-05-04T16:40:25.182Z,100768.16
2023-05-04T16:43:27.976Z,100769.47
2023-05-04T16:46:30.964Z,100765.88
2023-05-04T16:49:33.985Z,100772.13
2023-05-04T16:52:36.829Z,100770.72
2023-05-04T16:55:39.485Z,100777.06
2023-05-04T16:58:42.014Z,100784.03
2023-05-04T17:01:44.991Z,100791.66
2023-05-04T17:04:47.629Z,100789.19
2023-05-04T17:07:50.423Z,100808.50
2023-05-04T17:10:58.085Z,100802.44
2023-05-04T17:14:01.548Z,100803.81
2023-05-04T17:17:04.153Z,100804.84
2023-05-04T17:20:09.492Z,100802.63
2023-05-04T17:23:14.045Z,100810.72
2023-05-04T17:26:16.879Z,100811.13
2023-05-04T17:29:19.959Z,100813.50
2023-05-04T17:32:22.919Z,100820.44
2023-05-04T17:35:26.775Z,100821.44
2023-05-04T17:38:30.053Z,100830.88
2023-05-04T17:41:32.772Z,100837.13
2023-05-04T17:44:35.492Z,100844.94
2023-05-04T17:47:38.321Z,100842.66
2023-05-04T17:50:41.326Z,100854.06
2023-05-04T17:53:44.361Z,100860.03
2023-05-04T17:56:46.887Z,100860.22
2023-05-04T17:59:49.651Z,100871.56
2023-05-04T18:02:52.679Z,100880.63
2023-05-04T18:05:55.200Z,100882.38
2023-05-04T18:08:58.216Z,100887.47
2023-05-04T18:12:01.010Z,100892.25
2023-05-04T18:15:03.868Z,100895.34
2023-05-04T18:18:06.746Z,100901.50
2023-05-04T18:21:09.486Z,100906.56
2023-05-04T18:24:12.192Z,100912.25
2023-05-04T18:27:14.819Z,100916.72
2023-05-04T18:30:18.821Z,100920.81
2023-05-04T18:33:21.706Z,100922.09
2023-05-04T18:36:24.526Z,100925.09
2023-05-04T18:39:27.842Z,100928.44
2023-05-04T18:42:30.764Z,100929.44
2023-05-04T18:45:33.727Z,100930.25
2023-05-04T18:48:36.805Z,100939.38
2023-05-04T18:51:41.905Z,100938.75
2023-05-04T18:54:44.695Z,100943.47
2023-05-04T18:57:47.677Z,100941.13
2023-05-04T19:00:51.735Z,100937.31
2023-05-04T19:03:54.593Z,100943.50
2023-05-04T19:06:59.934Z,100942.91
2023-05-04T19:10:04.235Z,100956.91
2023-05-04T19:13:07.400Z,100947.78
2023-05-04T19:16:13.272Z,100954.56
2023-05-04T19:19:16.142Z,100959.09
2023-05-04T19:22:18.748Z,100956.72
2023-05-04T19:25:33.575Z,100963.66
2023-05-04T19:28:40.015Z,100971.81
2023-05-04T19:31:43.280Z,100963.63
2023-05-04T19:34:46.409Z,100963.13
2023-05-04T19:37:49.442Z,100966.25
2023-05-04T19:40:54.395Z,100965.63
2023-05-04T19:43:57.114Z,100968.31
2023-05-04T19:47:00.526Z,100968.59
2023-05-04T19:50:03.923Z,100969.53
2023-05-04T19:53:06.956Z,100973.19
2023-05-04T19:56:09.797Z,100975.25
2023-05-04T19:59:12.751Z,100974.13
2023-05-04T20:02:15.724Z,100964.97
2023-05-04T20:05:18.515Z,100969.06
2023-05-04T20:08:20.964Z,100971.59
2023-05-04T20:11:24.296Z,100978.47
2023-05-04T20:14:26.778Z,100977.69
2023-05-04T20:17:29.661Z,100978.53
2023-05-04T20:20:33.067Z,100975.06
2023-05-04T20:23:35.792Z,100977.44
2023-05-04T20:26:38.409Z,100971.75
2023-05-04T20:29:41.081Z,100971.28
2023-05-04T20:32:44.075Z,100978.00
2023-05-04T20:35:46.930Z,100975.03
2023-05-04T20:38:49.576Z,100981.88
2023-05-04T20:41:53.295Z,100986.50
2023-05-04T20:44:56.089Z,100987.59
2023-05-04T20:47:59.104Z,100979.22
2023-05-04T20:51:14.069Z,100974.84
2023-05-04T20:54:18.555Z,100974.84
2023-05-04T20:57:21.149Z,100976.22
2023-05-04T21:00:26.617Z,100981.03
2023-05-04T21:03:29.474Z,100980.84
2023-05-04T21:06:32.372Z,100971.44
2023-05-04T21:09:34.801Z,100971.16
2023-05-04T21:12:37.779Z,100975.22
2023-05-04T21:15:40.660Z,100968.94
2023-05-04T21:18:45.034Z,100969.97
2023-05-04T21:21:47.441Z,100960.13
2023-05-04T21:24:50.405Z,100956.03
2023-05-04T21:27:52.996Z,100953.84
2023-05-04T21:30:59.027Z,100955.53
2023-05-04T21:34:01.853Z,100956.56
2023-05-04T21:37:04.577Z,100960.81
2023-05-04T21:40:09.295Z,100963.88
2023-05-04T21:43:12.821Z,100966.06
2023-05-04T21:46:16.068Z,100965.34
2023-05-04T21:49:18.953Z,100967.28
2023-05-04T21:52:21.733Z,100966.31
2023-05-04T21:55:24.459Z,100959.94
2023-05-04T21:58:27.340Z,100964.69
2023-05-04T22:01:30.932Z,100950.56
2023-05-04T22:04:33.701Z,100958.50
2023-05-04T22:07:36.845Z,100955.97
2023-05-04T22:10:40.428Z,100963.69
2023-05-04T22:13:54.425Z,100966.34
2023-05-04T22:16:56.965Z,100970.59
2023-05-04T22:20:00.485Z,100976.72
2023-05-04T22:23:02.928Z,100972.34
2023-05-04T22:26:05.866Z,100975.44
2023-05-04T22:29:08.667Z,100966.53
2023-05-04T22:32:11.625Z,100967.72
2023-05-04T22:35:14.264Z,100968.91
2023-05-04T22:38:17.349Z,100966.22
2023-05-04T22:41:19.791Z,100959.13
2023-05-04T22:44:22.709Z,100959.44
2023-05-04T22:47:25.772Z,100962.97
2023-05-04T22:50:28.800Z,100962.41
2023-05-04T22:53:31.685Z,100971.09
2023-05-04T22:56:34.405Z,100966.44
2023-05-04T22:59:37.349Z,100959.53
2023-05-04T23:02:40.451Z,100957.63
2023-05-04T23:05:43.678Z,100965.28
2023-05-04T23:08:47.174Z,100956.13
2023-05-04T23:11:49.643Z,100963.25
2023-05-04T23:14:52.704Z,100953.47
2023-05-04T23:17:55.197Z,100958.03
2023-05-04T23:20:57.977Z,100949.63
2023-05-04T23:24:00.557Z,100942.50
2023-05-04T23:27:03.406Z,100950.66
2023-05-04T23:30:06.949Z,100948.78
2023-05-04T23:33:09.945Z,100945.06
2023-05-04T23:36:12.427Z,100937.66
2023-05-04T23:39:16.240Z,100944.59
2023-05-04T23:42:18.964Z,100936.88
2023-05-04T23:45:21.764Z,100937.00
2023-05-04T23:48:24.406Z,100931.06
2023-05-04T23:51:28.875Z,100922.50
2023-05-04T23:54:31.896Z,100929.03
2023-05-04T23:57:34.544Z,100926.06
